Terminal Aerodrome Forecast
Issued by NWS Mt. Holly, NJ

Home | Current Version | Previous Version | Text Only | Print | Product List | Glossary On
Versions: 1 2 3 4 5 6 7 8 9 10 11 12 13 14 15 16 17 18 19 20
000
FTAK31 PANC 260531
TAFABE
TAF
PABE 260531Z 2606/2706 19010KT P6SM OVC018
     FM261000 18008KT P6SM VCFG SCT005 OVC010
     FM261200 18006KT 2SM BR OVC004
     FM261900 VRB04KT P6SM BKN010
     FM262100 VRB04KT P6SM SCT030
     FM270300 36007KT P6SM SKC=

USA.gov is the U.S. government's official web portal to all federal, state and local government web resources and services.